createdAt,value
2022-07-28T00:00:47.892Z,1015.26
2022-07-28T00:01:47.965Z,1015.26
2022-07-28T00:02:47.983Z,1015.24
2022-07-28T00:03:47.892Z,1015.24
2022-07-28T00:04:47.898Z,1015.26
2022-07-28T00:05:47.898Z,1015.24
2022-07-28T00:06:47.895Z,1015.24
2022-07-28T00:07:47.898Z,1015.24
2022-07-28T00:08:47.898Z,1015.26
2022-07-28T00:09:47.900Z,1015.25
2022-07-28T00:10:47.898Z,1015.28
2022-07-28T00:11:50.352Z,1015.29
2022-07-28T00:12:47.902Z,1015.30
2022-07-28T00:13:47.898Z,1015.30
2022-07-28T00:14:47.902Z,1015.31
2022-07-28T00:15:47.963Z,1015.32
2022-07-28T00:16:47.970Z,1015.29
2022-07-28T00:17:47.906Z,1015.28
2022-07-28T00:18:47.903Z,1015.30
2022-07-28T00:19:47.910Z,1015.34
2022-07-28T00:20:47.908Z,1015.31
2022-07-28T00:21:47.907Z,1015.34
2022-07-28T00:22:47.908Z,1015.36
2022-07-28T00:23:47.908Z,1015.35
2022-07-28T00:24:48.442Z,1015.38
2022-07-28T00:25:47.914Z,1015.34
2022-07-28T00:26:47.911Z,1015.34
2022-07-28T00:27:47.910Z,1015.36
2022-07-28T00:28:47.908Z,1015.32
2022-07-28T00:29:51.076Z,1015.32
2022-07-28T00:30:47.912Z,1015.32
2022-07-28T00:31:47.943Z,1015.32
2022-07-28T00:32:47.921Z,1015.33
2022-07-28T00:33:47.915Z,1015.32
2022-07-28T00:34:47.921Z,1015.33
2022-07-28T00:35:48.683Z,1015.34
2022-07-28T00:36:47.915Z,1015.32
2022-07-28T00:37:47.924Z,1015.33
2022-07-28T00:38:48.848Z,1015.32
2022-07-28T00:39:47.911Z,1015.35
2022-07-28T00:40:47.915Z,1015.36
2022-07-28T00:41:47.917Z,1015.32
2022-07-28T00:42:47.923Z,1015.37
2022-07-28T00:43:47.926Z,1015.36
2022-07-28T00:44:47.920Z,1015.35
2022-07-28T00:45:47.926Z,1015.35
2022-07-28T00:46:48.061Z,1015.35
2022-07-28T00:47:47.924Z,1015.35
2022-07-28T00:48:47.958Z,1015.39
2022-07-28T00:49:47.930Z,1015.34
2022-07-28T00:50:47.926Z,1015.34
2022-07-28T00:51:47.929Z,1015.39
2022-07-28T00:52:47.928Z,1015.38
2022-07-28T00:53:47.927Z,1015.40
2022-07-28T00:54:47.927Z,1015.41
2022-07-28T00:56:02.711Z,1015.41
2022-07-28T00:56:47.932Z,1015.37
2022-07-28T00:57:47.935Z,1015.41
2022-07-28T00:58:47.930Z,1015.38
2022-07-28T00:59:47.932Z,1015.41
2022-07-28T01:00:47.930Z,1015.36
2022-07-28T01:01:48.083Z,1015.34
2022-07-28T01:02:48.069Z,1015.33
2022-07-28T01:03:47.934Z,1015.32
2022-07-28T01:04:47.932Z,1015.31
2022-07-28T01:05:47.935Z,1015.29
2022-07-28T01:06:47.937Z,1015.31
2022-07-28T01:07:47.938Z,1015.34
2022-07-28T01:08:47.939Z,1015.30
2022-07-28T01:09:47.944Z,1015.32
2022-07-28T01:10:47.945Z,1015.32
2022-07-28T01:11:47.938Z,1015.27
2022-07-28T01:12:47.938Z,1015.32
2022-07-28T01:13:47.941Z,1015.30
2022-07-28T01:14:47.941Z,1015.31
2022-07-28T01:15:47.989Z,1015.33
2022-07-28T01:16:47.942Z,1015.33
2022-07-28T01:17:47.943Z,1015.32
2022-07-28T01:18:47.942Z,1015.31
2022-07-28T01:19:47.945Z,1015.30
2022-07-28T01:20:48.052Z,1015.29
2022-07-28T01:21:47.948Z,1015.32
2022-07-28T01:22:47.946Z,1015.34
2022-07-28T01:23:47.951Z,1015.34
2022-07-28T01:24:47.946Z,1015.33
2022-07-28T01:25:48.679Z,1015.33
2022-07-28T01:26:47.951Z,1015.31
2022-07-28T01:27:47.952Z,1015.29
2022-07-28T01:28:47.952Z,1015.32
2022-07-28T01:29:47.949Z,1015.30
2022-07-28T01:30:48.024Z,1015.26
2022-07-28T01:31:48.041Z,1015.31
2022-07-28T01:32:47.955Z,1015.32
2022-07-28T01:33:47.983Z,1015.29
2022-07-28T01:34:47.952Z,1015.27
2022-07-28T01:35:47.961Z,1015.31
2022-07-28T01:36:47.953Z,1015.34
2022-07-28T01:37:47.956Z,1015.29
2022-07-28T01:38:47.958Z,1015.31
2022-07-28T01:39:47.955Z,1015.33
2022-07-28T01:40:48.411Z,1015.32
2022-07-28T01:41:47.960Z,1015.33
2022-07-28T01:42:47.967Z,1015.37
2022-07-28T01:43:47.960Z,1015.38
2022-07-28T01:44:47.962Z,1015.37
2022-07-28T01:45:47.957Z,1015.35
2022-07-28T01:46:48.066Z,1015.39
2022-07-28T01:47:47.961Z,1015.38
2022-07-28T01:48:48.017Z,1015.38
2022-07-28T01:49:47.972Z,1015.38
2022-07-28T01:50:47.957Z,1015.37
2022-07-28T01:51:47.959Z,1015.38
2022-07-28T01:52:47.963Z,1015.41
2022-07-28T01:53:47.963Z,1015.39
2022-07-28T01:54:47.961Z,1015.39
2022-07-28T01:55:47.961Z,1015.38
2022-07-28T01:56:47.966Z,1015.37
2022-07-28T01:57:47.969Z,1015.38
2022-07-28T01:58:47.963Z,1015.33
2022-07-28T01:59:47.967Z,1015.40
2022-07-28T02:00:47.963Z,1015.41
2022-07-28T02:01:48.068Z,1015.37
2022-07-28T02:02:47.966Z,1015.34
2022-07-28T02:03:47.966Z,1015.39
2022-07-28T02:04:48.007Z,1015.37
2022-07-28T02:06:30.518Z,1015.33
2022-07-28T02:16:03.950Z,1015.25
2022-07-28T02:17:03.854Z,1015.27
2022-07-28T02:18:03.862Z,1015.28
2022-07-28T02:20:16.458Z,1015.25
2022-07-28T02:21:16.453Z,1015.31
2022-07-28T02:22:16.463Z,1015.29
2022-07-28T02:23:16.464Z,1015.31
2022-07-28T02:24:17.017Z,1015.31
2022-07-28T02:25:16.452Z,1015.36
2022-07-28T02:26:16.463Z,1015.34
2022-07-28T02:27:16.466Z,1015.37
2022-07-28T02:28:16.459Z,1015.42
2022-07-28T02:29:40.588Z,1015.37
2022-07-28T02:30:16.463Z,1015.38
2022-07-28T02:31:16.629Z,1015.36
2022-07-28T02:32:26.818Z,1015.36
2022-07-28T02:33:16.461Z,1015.40
2022-07-28T02:34:16.769Z,1015.37
2022-07-28T02:35:16.464Z,1015.39
2022-07-28T02:40:19.967Z,1015.38
2022-07-28T02:41:19.960Z,1015.43
2022-07-28T02:42:19.962Z,1015.45
2022-07-28T02:43:19.963Z,1015.44
2022-07-28T02:44:19.968Z,1015.42
2022-07-28T02:45:19.963Z,1015.39
2022-07-28T02:46:20.065Z,1015.39
2022-07-28T02:47:19.966Z,1015.41
2022-07-28T02:48:19.969Z,1015.42
2022-07-28T02:49:20.028Z,1015.38
2022-07-28T02:50:19.966Z,1015.39
2022-07-28T02:51:19.972Z,1015.40
2022-07-28T02:52:19.969Z,1015.46
2022-07-28T02:54:07.529Z,1015.43
2022-07-28T02:55:07.524Z,1015.44
2022-07-28T02:57:00.084Z,1015.48
2022-07-28T02:58:00.093Z,1015.48
2022-07-28T02:59:00.087Z,1015.47
2022-07-28T03:00:00.098Z,1015.48
2022-07-28T03:01:00.259Z,1015.49
2022-07-28T03:02:00.212Z,1015.53
2022-07-28T03:03:00.089Z,1015.54
2022-07-28T03:04:00.103Z,1015.52
2022-07-28T03:05:00.213Z,1015.54
2022-07-28T03:06:00.097Z,1015.58
2022-07-28T03:07:00.094Z,1015.53
2022-07-28T03:08:00.134Z,1015.55
2022-07-28T03:09:00.100Z,1015.56
2022-07-28T03:10:00.104Z,1015.61
2022-07-28T03:11:00.097Z,1015.60
2022-07-28T03:12:00.095Z,1015.64
2022-07-28T03:14:17.709Z,1015.67
2022-07-28T03:15:17.702Z,1015.65
2022-07-28T03:16:17.774Z,1015.68
2022-07-28T03:17:17.772Z,1015.69
2022-07-28T03:18:17.709Z,1015.70
2022-07-28T03:19:17.704Z,1015.72
2022-07-28T03:20:17.709Z,1015.74
2022-07-28T03:21:17.708Z,1015.74
2022-07-28T03:22:17.710Z,1015.73
2022-07-28T03:23:17.706Z,1015.74
2022-07-28T03:24:17.705Z,1015.80
2022-07-28T03:25:17.705Z,1015.80
2022-07-28T03:26:17.707Z,1015.81
2022-07-28T03:27:17.713Z,1015.84
2022-07-28T03:28:17.717Z,1015.84
2022-07-28T03:29:17.709Z,1015.88
2022-07-28T03:30:17.711Z,1015.93
2022-07-28T03:31:17.768Z,1015.92
2022-07-28T03:32:17.711Z,1015.91
2022-07-28T03:33:17.709Z,1015.90
2022-07-28T03:34:17.893Z,1015.95
2022-07-28T03:35:17.713Z,1015.93
2022-07-28T03:36:17.729Z,1015.93
2022-07-28T03:37:17.718Z,1015.92
2022-07-28T03:38:17.997Z,1015.92
2022-07-28T03:39:17.712Z,1015.91
2022-07-28T03:40:17.715Z,1015.93
2022-07-28T03:41:17.716Z,1015.91
2022-07-28T03:42:17.714Z,1015.90
2022-07-28T03:43:17.716Z,1015.88
2022-07-28T03:44:27.995Z,1015.86
2022-07-28T03:45:17.717Z,1015.86
2022-07-28T03:46:17.751Z,1015.88
2022-07-28T03:47:17.714Z,1015.90
2022-07-28T03:48:17.720Z,1015.90
2022-07-28T03:49:17.772Z,1015.91
2022-07-28T03:50:17.723Z,1015.91
2022-07-28T03:51:17.716Z,1015.90
2022-07-28T03:52:17.721Z,1015.91
2022-07-28T03:53:17.716Z,1015.90
2022-07-28T03:54:17.789Z,1015.93
2022-07-28T03:55:17.718Z,1015.93
2022-07-28T03:56:17.724Z,1015.96
2022-07-28T03:57:17.721Z,1015.93
2022-07-28T03:58:17.718Z,1015.93
2022-07-28T03:59:17.722Z,1015.89
2022-07-28T04:00:17.721Z,1015.90
2022-07-28T04:01:17.808Z,1015.95
2022-07-28T04:02:17.825Z,1015.97
2022-07-28T04:03:35.052Z,1016.01
2022-07-28T04:04:18.160Z,1015.96
2022-07-28T04:05:17.723Z,1015.95
2022-07-28T04:06:17.728Z,1015.96
2022-07-28T04:07:17.722Z,1015.97
2022-07-28T04:08:17.729Z,1015.99
2022-07-28T04:09:17.724Z,1015.98
2022-07-28T04:10:17.728Z,1016.01
2022-07-28T04:11:17.730Z,1016.00
2022-07-28T04:12:17.724Z,1015.98
2022-07-28T04:13:17.724Z,1015.97
2022-07-28T04:14:18.251Z,1016.00
2022-07-28T04:15:17.723Z,1016.00
2022-07-28T04:16:17.800Z,1016.00
2022-07-28T04:17:17.728Z,1016.08
2022-07-28T04:18:17.730Z,1016.00
2022-07-28T04:19:17.727Z,1016.07
2022-07-28T04:20:17.731Z,1016.05
2022-07-28T04:21:17.722Z,1016.06
2022-07-28T04:22:17.726Z,1016.05
2022-07-28T04:23:17.731Z,1016.06
2022-07-28T04:24:17.999Z,1016.06
2022-07-28T04:25:17.722Z,1016.06
2022-07-28T04:26:17.728Z,1016.07
2022-07-28T04:27:17.727Z,1016.06
2022-07-28T04:28:17.728Z,1016.07
2022-07-28T04:29:23.367Z,1016.09
2022-07-28T04:30:17.732Z,1016.08
2022-07-28T04:31:17.780Z,1016.09
2022-07-28T04:32:17.728Z,1016.08
2022-07-28T04:33:17.729Z,1016.05
2022-07-28T04:34:17.947Z,1016.08
2022-07-28T04:35:17.899Z,1016.11
2022-07-28T04:36:17.734Z,1016.08
2022-07-28T04:37:17.735Z,1016.10
2022-07-28T04:38:17.738Z,1016.16
2022-07-28T04:39:17.735Z,1016.16
2022-07-28T04:40:17.733Z,1016.14
2022-07-28T04:41:17.735Z,1016.13
2022-07-28T04:42:17.731Z,1016.13
2022-07-28T04:43:17.737Z,1016.11
2022-07-28T04:44:18.158Z,1016.11
2022-07-28T04:45:17.732Z,1016.12
2022-07-28T04:46:17.831Z,1016.10
2022-07-28T04:47:17.784Z,1016.12
2022-07-28T04:48:17.734Z,1016.12
2022-07-28T04:49:17.843Z,1016.11
2022-07-28T04:50:17.736Z,1016.14
2022-07-28T04:51:17.737Z,1016.14
2022-07-28T04:52:17.740Z,1016.15
2022-07-28T04:53:17.731Z,1016.16
2022-07-28T04:54:20.845Z,1016.15
2022-07-28T04:55:17.739Z,1016.15
2022-07-28T04:56:17.740Z,1016.16
2022-07-28T04:57:17.737Z,1016.13
2022-07-28T04:58:17.736Z,1016.15
2022-07-28T04:59:17.740Z,1016.21
2022-07-28T05:00:17.786Z,1016.20
2022-07-28T05:01:17.793Z,1016.16
2022-07-28T05:02:17.742Z,1016.17
2022-07-28T05:03:17.738Z,1016.14
2022-07-28T05:04:18.295Z,1016.17
2022-07-28T05:05:17.903Z,1016.18
2022-07-28T05:06:17.742Z,1016.18
2022-07-28T05:07:17.741Z,1016.21
2022-07-28T05:08:17.743Z,1016.22
2022-07-28T05:09:17.744Z,1016.20
2022-07-28T05:10:17.751Z,1016.26
2022-07-28T05:11:17.737Z,1016.22
2022-07-28T05:12:17.747Z,1016.22
2022-07-28T05:13:17.739Z,1016.23
2022-07-28T05:14:17.885Z,1016.23
2022-07-28T05:15:17.747Z,1016.22
2022-07-28T05:16:17.819Z,1016.22
2022-07-28T05:17:17.744Z,1016.13
2022-07-28T05:18:17.743Z,1016.14
2022-07-28T05:19:17.748Z,1016.13
2022-07-28T05:20:17.745Z,1016.10
2022-07-28T05:21:22.462Z,1016.10
2022-07-28T05:22:17.744Z,1016.12
2022-07-28T05:23:17.789Z,1016.11
2022-07-28T05:24:17.984Z,1016.12
2022-07-28T05:25:17.745Z,1016.10
2022-07-28T05:26:17.750Z,1016.11
2022-07-28T05:27:17.751Z,1016.16
2022-07-28T05:28:17.748Z,1016.14
2022-07-28T05:29:17.746Z,1016.19
2022-07-28T05:30:17.743Z,1016.16
2022-07-28T05:31:17.817Z,1016.22
2022-07-28T05:32:18.239Z,1016.24
2022-07-28T05:33:17.748Z,1016.21
2022-07-28T05:34:17.906Z,1016.20
2022-07-28T05:35:17.750Z,1016.24
2022-07-28T05:36:17.751Z,1016.26
2022-07-28T05:37:17.754Z,1016.31
2022-07-28T05:38:17.753Z,1016.29
2022-07-28T05:39:17.750Z,1016.30
2022-07-28T05:40:17.757Z,1016.34
2022-07-28T05:41:17.751Z,1016.32
2022-07-28T05:42:17.753Z,1016.33
2022-07-28T05:43:17.755Z,1016.32
2022-07-28T05:44:17.867Z,1016.35
2022-07-28T05:45:18.038Z,1016.32
2022-07-28T05:46:17.833Z,1016.33
2022-07-28T05:47:17.803Z,1016.33
2022-07-28T05:48:17.756Z,1016.38
2022-07-28T05:49:17.838Z,1016.42
2022-07-28T05:50:17.869Z,1016.44
2022-07-28T05:51:17.757Z,1016.42
2022-07-28T05:52:17.759Z,1016.43
2022-07-28T05:53:17.759Z,1016.44
2022-07-28T05:54:17.863Z,1016.41
2022-07-28T05:55:17.764Z,1016.47
2022-07-28T05:56:17.761Z,1016.46
2022-07-28T05:57:17.759Z,1016.46
2022-07-28T05:58:17.763Z,1016.46
2022-07-28T05:59:17.760Z,1016.46
2022-07-28T06:00:17.765Z,1016.51
2022-07-28T06:01:17.816Z,1016.50
2022-07-28T06:02:17.865Z,1016.52
2022-07-28T06:03:17.761Z,1016.52
2022-07-28T06:04:26.439Z,1016.50
2022-07-28T06:05:17.763Z,1016.55
2022-07-28T06:06:17.768Z,1016.51
2022-07-28T06:07:17.764Z,1016.54
2022-07-28T06:08:17.762Z,1016.51
2022-07-28T06:09:17.759Z,1016.52
2022-07-28T06:10:17.764Z,1016.50
2022-07-28T06:11:18.037Z,1016.47
2022-07-28T06:12:17.768Z,1016.52
2022-07-28T06:13:17.764Z,1016.49
2022-07-28T06:14:18.356Z,1016.48
2022-07-28T06:15:17.771Z,1016.50
2022-07-28T06:16:17.857Z,1016.50
2022-07-28T06:17:17.774Z,1016.48
2022-07-28T06:18:17.781Z,1016.50
2022-07-28T06:19:17.770Z,1016.49
2022-07-28T06:20:17.773Z,1016.50
2022-07-28T06:21:17.769Z,1016.52
2022-07-28T06:22:17.774Z,1016.57
2022-07-28T06:23:17.772Z,1016.54
2022-07-28T06:24:18.027Z,1016.55
2022-07-28T06:25:17.771Z,1016.58
2022-07-28T06:26:17.772Z,1016.63
2022-07-28T06:27:17.776Z,1016.60
2022-07-28T06:28:17.777Z,1016.63
2022-07-28T06:29:17.772Z,1016.61
2022-07-28T06:30:17.776Z,1016.62
2022-07-28T06:31:17.805Z,1016.61
2022-07-28T06:32:17.787Z,1016.62
2022-07-28T06:33:17.779Z,1016.68
2022-07-28T06:34:17.888Z,1016.66
2022-07-28T06:35:17.783Z,1016.68
2022-07-28T06:36:17.805Z,1016.62
2022-07-28T06:37:17.781Z,1016.66
2022-07-28T06:38:17.788Z,1016.67
2022-07-28T06:39:17.783Z,1016.69
2022-07-28T06:40:17.790Z,1016.66
2022-07-28T06:41:17.781Z,1016.67
2022-07-28T06:42:17.790Z,1016.68
2022-07-28T06:43:17.799Z,1016.70
2022-07-28T06:44:18.095Z,1016.73
2022-07-28T06:45:19.809Z,1016.74
2022-07-28T06:46:17.832Z,1016.74
2022-07-28T06:47:17.936Z,1016.73
2022-07-28T06:48:17.791Z,1016.71
2022-07-28T06:49:18.597Z,1016.68
2022-07-28T06:50:27.027Z,1016.70
2022-07-28T06:51:17.792Z,1016.68
2022-07-28T06:52:17.796Z,1016.66
2022-07-28T06:53:17.797Z,1016.70
2022-07-28T06:54:18.648Z,1016.66
2022-07-28T06:55:17.800Z,1016.68
2022-07-28T06:56:17.797Z,1016.72
2022-07-28T06:57:17.802Z,1016.69
2022-07-28T06:58:17.801Z,1016.76
2022-07-28T06:59:18.005Z,1016.74
2022-07-28T07:00:17.816Z,1016.78
2022-07-28T07:01:17.882Z,1016.77
2022-07-28T07:02:17.807Z,1016.76
2022-07-28T07:03:17.805Z,1016.76
2022-07-28T07:04:18.401Z,1016.78
2022-07-28T07:05:17.811Z,1016.79
2022-07-28T07:06:17.809Z,1016.77
2022-07-28T07:07:17.810Z,1016.80
2022-07-28T07:08:17.827Z,1016.79
2022-07-28T07:09:17.813Z,1016.80
2022-07-28T07:10:17.822Z,1016.78
2022-07-28T07:11:17.815Z,1016.77
2022-07-28T07:12:17.822Z,1016.81
2022-07-28T07:13:17.816Z,1016.79
2022-07-28T07:14:18.359Z,1016.75
2022-07-28T07:15:17.820Z,1016.76
2022-07-28T07:16:17.916Z,1016.79
2022-07-28T07:17:17.819Z,1016.76
2022-07-28T07:18:17.824Z,1016.80
2022-07-28T07:19:17.827Z,1016.83
2022-07-28T07:20:18.206Z,1016.78
2022-07-28T07:21:17.827Z,1016.84
2022-07-28T07:22:17.832Z,1016.80
2022-07-28T07:23:17.829Z,1016.84
2022-07-28T07:24:18.072Z,1016.83
2022-07-28T07:25:17.840Z,1016.84
2022-07-28T07:26:17.838Z,1016.89
2022-07-28T07:27:17.837Z,1016.88
2022-07-28T07:28:17.846Z,1016.89
2022-07-28T07:29:17.843Z,1016.91
2022-07-28T07:30:17.841Z,1016.90
2022-07-28T07:31:17.888Z,1016.94
2022-07-28T07:32:17.843Z,1016.93
2022-07-28T07:33:17.849Z,1016.91
2022-07-28T07:34:18.091Z,1016.94
2022-07-28T07:35:17.852Z,1016.95
2022-07-28T07:36:17.854Z,1016.97
2022-07-28T07:37:17.853Z,1017.00
2022-07-28T07:38:17.855Z,1016.97
2022-07-28T07:39:17.858Z,1016.98
2022-07-28T07:40:17.864Z,1017.01
2022-07-28T07:41:17.860Z,1017.02
2022-07-28T07:42:17.861Z,1017.03
2022-07-28T07:43:17.869Z,1017.07
2022-07-28T07:44:18.163Z,1017.09
2022-07-28T07:45:17.872Z,1017.12
2022-07-28T07:46:17.933Z,1017.13
2022-07-28T07:47:17.924Z,1017.17
2022-07-28T07:48:17.871Z,1017.19
2022-07-28T07:49:17.931Z,1017.26
2022-07-28T07:50:17.876Z,1017.29
2022-07-28T07:51:17.884Z,1017.35
2022-07-28T07:52:17.882Z,1017.49
2022-07-28T07:53:17.883Z,1017.67
2022-07-28T07:54:18.126Z,1018.08
2022-07-28T07:55:17.890Z,1018.43
2022-07-28T07:56:17.893Z,1019.48
2022-07-28T07:57:17.900Z,1017.95
2022-07-28T07:58:17.900Z,1019.19
2022-07-28T07:59:17.896Z,1024.03
2022-07-28T08:00:29.246Z,1026.42
2022-07-28T08:01:17.979Z,1027.87
2022-07-28T08:02:17.907Z,1026.22
2022-07-28T08:03:22.425Z,1026.79
2022-07-28T08:04:18.342Z,1026.09
2022-07-28T08:05:17.918Z,1026.31
2022-07-28T08:06:17.921Z,1025.18
2022-07-28T08:07:17.925Z,1025.59
2022-07-28T08:08:17.948Z,1024.76
2022-07-28T08:09:17.934Z,1023.88
2022-07-28T08:10:17.935Z,1023.12
2022-07-28T08:11:17.944Z,1022.93
2022-07-28T08:12:17.945Z,1022.32
2022-07-28T08:13:17.946Z,1022.31
2022-07-28T08:14:18.452Z,1022.25
2022-07-28T08:15:17.958Z,1022.01
2022-07-28T08:16:18.049Z,1021.20
2022-07-28T08:17:21.004Z,1021.26
2022-07-28T08:18:17.967Z,1020.76
2022-07-28T08:19:17.981Z,1021.87
2022-07-28T08:20:17.980Z,1022.14
2022-07-28T08:21:17.989Z,1021.94
2022-07-28T08:22:17.992Z,1021.53
2022-07-28T08:23:21.582Z,1021.20
2022-07-28T08:24:32.413Z,1021.18
2022-07-28T08:25:18.020Z,1021.06
2022-07-28T08:26:18.015Z,1020.81
2022-07-28T08:27:18.026Z,1018.57
2022-07-28T08:28:18.033Z,1018.58
2022-07-28T08:29:18.040Z,1018.62
2022-07-28T08:30:21.170Z,1018.88
2022-07-28T08:31:18.137Z,1019.37
2022-07-28T08:32:18.055Z,1019.32
2022-07-28T08:33:18.071Z,1018.96
2022-07-28T08:34:31.385Z,1018.87
2022-07-28T08:35:33.113Z,1018.87
2022-07-28T08:36:18.092Z,1018.68
2022-07-28T08:37:18.098Z,1018.75
2022-07-28T08:38:18.105Z,1018.90
2022-07-28T08:39:18.114Z,1018.87
2022-07-28T08:40:18.121Z,1018.43
2022-07-28T08:41:18.135Z,1018.56
2022-07-28T08:42:18.141Z,1018.70
2022-07-28T08:43:18.149Z,1018.53
2022-07-28T08:44:18.433Z,1018.75
2022-07-28T08:45:18.168Z,1018.55
2022-07-28T08:46:18.244Z,1018.35
2022-07-28T08:47:18.184Z,1018.17
2022-07-28T08:48:18.201Z,1018.22
2022-07-28T08:49:18.316Z,1018.22
2022-07-28T08:50:18.217Z,1018.07
2022-07-28T08:51:18.236Z,1018.15
2022-07-28T08:52:18.237Z,1017.94
2022-07-28T08:53:18.250Z,1017.86
2022-07-28T08:54:18.259Z,1017.88
2022-07-28T08:55:19.727Z,1017.61
2022-07-28T08:56:18.283Z,1017.85
2022-07-28T08:57:18.297Z,1017.72
2022-07-28T08:58:18.301Z,1017.63
2022-07-28T08:59:18.318Z,1017.51
2022-07-28T09:00:18.330Z,1017.57
2022-07-28T09:01:18.412Z,1017.67
2022-07-28T09:02:18.538Z,1017.55
2022-07-28T09:03:18.440Z,1017.71
2022-07-28T09:04:18.590Z,1017.64
2022-07-28T09:05:18.391Z,1017.50
2022-07-28T09:06:18.391Z,1017.46
2022-07-28T09:07:18.405Z,1017.74
2022-07-28T09:08:18.415Z,1017.54
2022-07-28T09:09:18.432Z,1017.74
2022-07-28T09:10:18.446Z,1017.67
2022-07-28T09:11:18.453Z,1017.84
2022-07-28T09:12:18.462Z,1017.89
2022-07-28T09:13:18.477Z,1017.60
2022-07-28T09:14:18.483Z,1017.57
2022-07-28T09:15:18.496Z,1017.66
2022-07-28T09:16:18.578Z,1017.75
2022-07-28T09:17:18.519Z,1017.89
2022-07-28T09:18:18.527Z,1017.90
2022-07-28T09:19:18.541Z,1017.89
2022-07-28T09:20:18.551Z,1017.96
2022-07-28T09:21:18.570Z,1018.12
2022-07-28T09:22:18.573Z,1018.13
2022-07-28T09:23:42.026Z,1017.88
2022-07-28T09:24:18.611Z,1017.94
2022-07-28T09:25:18.614Z,1017.53
2022-07-28T09:26:18.622Z,1017.77
2022-07-28T09:27:18.639Z,1017.79
2022-07-28T09:28:20.351Z,1017.86
2022-07-28T09:29:18.694Z,1017.93
2022-07-28T09:30:18.698Z,1018.03
2022-07-28T09:31:18.853Z,1018.11
2022-07-28T09:32:18.706Z,1017.78
2022-07-28T09:33:42.474Z,1017.46
2022-07-28T09:34:18.736Z,1017.47
2022-07-28T09:35:18.752Z,1017.58
2022-07-28T09:36:18.765Z,1017.55
2022-07-28T09:37:23.358Z,1017.58
2022-07-28T09:38:18.793Z,1017.65
2022-07-28T09:39:18.813Z,1017.70
2022-07-28T09:40:22.254Z,1017.88
2022-07-28T09:41:19.133Z,1018.02
2022-07-28T09:42:18.852Z,1018.04
2022-07-28T09:43:18.864Z,1018.11
2022-07-28T09:44:18.882Z,1018.05
2022-07-28T09:45:23.718Z,1018.18
2022-07-28T09:46:19.167Z,1018.22
2022-07-28T09:47:19.078Z,1018.07
2022-07-28T09:48:19.239Z,1018.07
2022-07-28T09:49:19.094Z,1018.15
2022-07-28T09:50:18.978Z,1018.04
2022-07-28T09:51:18.991Z,1018.09
2022-07-28T09:52:19.011Z,1018.17
2022-07-28T09:53:19.022Z,1018.11
2022-07-28T09:54:19.519Z,1017.91
2022-07-28T09:55:19.067Z,1017.73
2022-07-28T09:56:19.078Z,1017.63
2022-07-28T09:57:19.094Z,1017.73
2022-07-28T09:58:19.109Z,1017.73
2022-07-28T09:59:19.131Z,1017.66
2022-07-28T10:00:19.140Z,1017.86
2022-07-28T10:01:19.213Z,1017.64
2022-07-28T10:02:19.329Z,1017.64
2022-07-28T10:03:19.271Z,1017.97
2022-07-28T10:04:19.716Z,1018.17
2022-07-28T10:05:19.240Z,1018.07
2022-07-28T10:06:19.249Z,1018.03
2022-07-28T10:07:19.275Z,1018.10
2022-07-28T10:08:19.283Z,1018.27
2022-07-28T10:09:19.308Z,1018.44
2022-07-28T10:10:19.322Z,1018.21
2022-07-28T10:11:19.348Z,1018.26
2022-07-28T10:12:19.360Z,1018.71
2022-07-28T10:13:19.377Z,1018.66
2022-07-28T10:14:19.396Z,1017.84
2022-07-28T10:15:19.426Z,1018.57
2022-07-28T10:16:19.505Z,1018.62
2022-07-28T10:17:19.456Z,1018.77
2022-07-28T10:18:19.473Z,1018.75
2022-07-28T10:19:19.538Z,1018.72
2022-07-28T10:20:19.507Z,1018.36
2022-07-28T10:21:19.530Z,1018.38
2022-07-28T10:22:19.551Z,1018.66
2022-07-28T10:23:19.572Z,1018.79
2022-07-28T10:24:19.591Z,1017.88
2022-07-28T10:25:19.610Z,1018.53
2022-07-28T10:26:19.630Z,1018.55
2022-07-28T10:27:19.657Z,1018.55
2022-07-28T10:28:19.674Z,1018.42
2022-07-28T10:29:19.741Z,1018.00
2022-07-28T10:30:19.714Z,1018.48
2022-07-28T10:31:19.853Z,1017.81
2022-07-28T10:32:19.755Z,1017.43
2022-07-28T10:33:20.992Z,1019.11
2022-07-28T10:34:20.257Z,1018.25
2022-07-28T10:35:19.823Z,1019.02
2022-07-28T10:36:19.847Z,1019.09
2022-07-28T10:37:19.869Z,1019.18
2022-07-28T10:38:19.880Z,1019.28
2022-07-28T10:39:19.903Z,1019.34
2022-07-28T10:40:19.930Z,1019.36
2022-07-28T10:41:19.944Z,1019.17
2022-07-28T10:42:19.977Z,1019.13
2022-07-28T10:43:19.991Z,1019.08
2022-07-28T10:44:20.291Z,1019.07
2022-07-28T10:45:20.031Z,1019.12
2022-07-28T10:46:20.132Z,1019.09
2022-07-28T10:47:20.327Z,1019.05
2022-07-28T10:48:20.102Z,1019.08
2022-07-28T10:49:20.250Z,1019.12
2022-07-28T10:50:20.151Z,1016.84
2022-07-28T10:51:20.170Z,1016.84
2022-07-28T10:52:45.713Z,1017.17
2022-07-28T10:53:20.214Z,1018.50
2022-07-28T10:54:25.170Z,1018.88
2022-07-28T10:55:20.608Z,1018.09
2022-07-28T10:56:20.282Z,1018.27
2022-07-28T10:57:20.760Z,1018.81
2022-07-28T10:58:24.780Z,1018.91
2022-07-28T10:59:20.353Z,1017.09
2022-07-28T11:00:26.411Z,1017.24
2022-07-28T11:01:47.164Z,1016.91
2022-07-28T11:02:20.529Z,1016.88
2022-07-28T11:03:20.574Z,1016.85
2022-07-28T11:04:20.467Z,1016.82
2022-07-28T11:05:20.491Z,1016.86
2022-07-28T11:06:20.514Z,1016.82
2022-07-28T11:07:20.542Z,1016.76
2022-07-28T11:08:20.564Z,1016.86
2022-07-28T11:09:20.585Z,1016.85
2022-07-28T11:10:20.602Z,1016.80
2022-07-28T11:11:20.625Z,1016.80
2022-07-28T11:12:20.645Z,1016.80
2022-07-28T11:13:20.664Z,1016.79
2022-07-28T11:14:20.692Z,1016.79
2022-07-28T11:15:20.709Z,1016.77
2022-07-28T11:16:20.772Z,1016.70
2022-07-28T11:17:24.339Z,1016.72
2022-07-28T11:18:20.765Z,1016.76
2022-07-28T11:19:40.103Z,1016.90
2022-07-28T11:20:29.842Z,1016.89
2022-07-28T11:21:20.829Z,1016.99
2022-07-28T11:22:20.850Z,1017.43
2022-07-28T11:23:20.866Z,1018.04
2022-07-28T11:24:20.888Z,1018.06
2022-07-28T11:25:22.717Z,1017.99
2022-07-28T11:26:20.921Z,1017.95
2022-07-28T11:27:20.940Z,1017.96
2022-07-28T11:28:20.961Z,1017.96
2022-07-28T11:29:20.980Z,1016.76
2022-07-28T11:30:21.085Z,1016.78
2022-07-28T11:31:21.048Z,1017.06
2022-07-28T11:32:21.048Z,1017.65
2022-07-28T11:33:21.060Z,1017.92
2022-07-28T11:34:21.081Z,1017.00
2022-07-28T11:35:21.096Z,1017.82
2022-07-28T11:36:21.122Z,1017.82
2022-07-28T11:37:21.142Z,1017.77
2022-07-28T11:38:21.157Z,1017.83
2022-07-28T11:39:21.186Z,1017.09
2022-07-28T11:40:21.210Z,1017.16
2022-07-28T11:41:21.229Z,1017.77
2022-07-28T11:42:21.247Z,1017.75
2022-07-28T11:43:22.163Z,1017.17
2022-07-28T11:44:21.286Z,1017.21
2022-07-28T11:45:21.305Z,1016.90
2022-07-28T11:46:21.378Z,1017.61
2022-07-28T11:47:21.347Z,1016.72
2022-07-28T11:48:21.369Z,1016.61
2022-07-28T11:49:21.457Z,1016.69
2022-07-28T11:50:21.413Z,1016.80
2022-07-28T11:51:21.433Z,1017.37
2022-07-28T11:52:21.461Z,1016.60
2022-07-28T11:53:21.478Z,1016.66
2022-07-28T11:54:21.495Z,1016.53
2022-07-28T11:55:21.521Z,1016.53
2022-07-28T11:56:21.550Z,1016.56
2022-07-28T11:57:21.568Z,1016.82
2022-07-28T11:58:21.582Z,1017.02
2022-07-28T11:59:21.605Z,1017.47
2022-07-28T12:00:21.728Z,1017.42
2022-07-28T12:01:21.648Z,1017.41
2022-07-28T12:02:21.777Z,1017.16
2022-07-28T12:03:23.904Z,1017.35
2022-07-28T12:04:21.766Z,1017.30
2022-07-28T12:05:21.727Z,1017.30
2022-07-28T12:06:29.480Z,1017.29
2022-07-28T12:07:21.769Z,1017.25
2022-07-28T12:08:21.797Z,1017.18
2022-07-28T12:09:25.761Z,1016.43
2022-07-28T12:10:44.045Z,1017.09
2022-07-28T12:11:21.858Z,1017.10
2022-07-28T12:12:21.880Z,1017.13
2022-07-28T12:13:21.901Z,1017.16
2022-07-28T12:14:21.920Z,1017.06
2022-07-28T12:15:21.942Z,1017.21
2022-07-28T12:16:22.013Z,1016.28
2022-07-28T12:17:21.986Z,1016.26
2022-07-28T12:18:22.013Z,1016.26
2022-07-28T12:19:22.035Z,1016.30
2022-07-28T12:20:22.066Z,1016.28
2022-07-28T12:21:22.075Z,1016.27
2022-07-28T12:22:22.101Z,1017.25
2022-07-28T12:23:22.125Z,1017.18